sensor_id;sensor_type;location;lat;lon;timestamp;P1;durP1;ratioP1;P2;durP2;ratioP2
75417;SDS011;63997;52.112;5.420;2022-10-31T00:00:25;10.98;;;6.25;;
75417;SDS011;63997;52.112;5.420;2022-10-31T00:02:51;8.88;;;4.43;;
75417;SDS011;63997;52.112;5.420;2022-10-31T00:05:17;4.40;;;2.17;;
75417;SDS011;63997;52.112;5.420;2022-10-31T00:07:44;6.50;;;2.27;;
75417;SDS011;63997;52.112;5.420;2022-10-31T00:10:10;3.17;;;2.80;;
75417;SDS011;63997;52.112;5.420;2022-10-31T00:12:36;5.50;;;3.50;;
75417;SDS011;63997;52.112;5.420;2022-10-31T00:15:03;5.30;;;3.40;;
75417;SDS011;63997;52.112;5.420;2022-10-31T00:17:29;9.98;;;4.22;;
75417;SDS011;63997;52.112;5.420;2022-10-31T00:19:56;11.73;;;3.57;;
75417;SDS011;63997;52.112;5.420;2022-10-31T00:22:22;6.68;;;3.50;;
75417;SDS011;63997;52.112;5.420;2022-10-31T00:24:49;9.70;;;3.85;;
75417;SDS011;63997;52.112;5.420;2022-10-31T00:27:15;7.18;;;4.25;;
75417;SDS011;63997;52.112;5.420;2022-10-31T00:29:41;6.25;;;4.93;;
75417;SDS011;63997;52.112;5.420;2022-10-31T00:32:08;7.23;;;3.00;;
75417;SDS011;63997;52.112;5.420;2022-10-31T00:34:34;4.70;;;3.08;;
75417;SDS011;63997;52.112;5.420;2022-10-31T00:37:00;7.50;;;4.00;;
75417;SDS011;63997;52.112;5.420;2022-10-31T00:39:27;7.88;;;3.15;;
75417;SDS011;63997;52.112;5.420;2022-10-31T00:41:53;7.45;;;3.33;;
75417;SDS011;63997;52.112;5.420;2022-10-31T00:44:19;7.20;;;3.07;;
75417;SDS011;63997;52.112;5.420;2022-10-31T00:46:46;10.18;;;4.70;;
75417;SDS011;63997;52.112;5.420;2022-10-31T00:49:12;5.70;;;3.85;;
75417;SDS011;63997;52.112;5.420;2022-10-31T00:51:38;4.85;;;2.25;;
75417;SDS011;63997;52.112;5.420;2022-10-31T00:54:05;6.70;;;3.17;;
75417;SDS011;63997;52.112;5.420;2022-10-31T00:56:31;5.73;;;3.97;;
75417;SDS011;63997;52.112;5.420;2022-10-31T00:58:57;6.93;;;4.07;;
75417;SDS011;63997;52.112;5.420;2022-10-31T01:01:24;7.55;;;4.50;;
75417;SDS011;63997;52.112;5.420;2022-10-31T01:03:50;8.55;;;4.43;;
75417;SDS011;63997;52.112;5.420;2022-10-31T01:06:17;7.28;;;4.88;;
75417;SDS011;63997;52.112;5.420;2022-10-31T01:08:44;8.83;;;4.97;;
75417;SDS011;63997;52.112;5.420;2022-10-31T01:11:14;9.50;;;5.18;;
75417;SDS011;63997;52.112;5.420;2022-10-31T01:13:43;9.85;;;5.38;;
75417;SDS011;63997;52.112;5.420;2022-10-31T01:16:11;10.60;;;5.40;;
75417;SDS011;63997;52.112;5.420;2022-10-31T01:18:39;10.70;;;5.25;;
75417;SDS011;63997;52.112;5.420;2022-10-31T01:24:02;8.95;;;5.40;;
75417;SDS011;63997;52.112;5.420;2022-10-31T01:26:29;12.65;;;5.57;;
75417;SDS011;63997;52.112;5.420;2022-10-31T01:28:58;10.88;;;5.63;;
75417;SDS011;63997;52.112;5.420;2022-10-31T01:31:27;10.68;;;5.70;;
75417;SDS011;63997;52.112;5.420;2022-10-31T01:33:55;9.43;;;5.73;;
75417;SDS011;63997;52.112;5.420;2022-10-31T01:36:27;12.82;;;5.75;;
75417;SDS011;63997;52.112;5.420;2022-10-31T01:38:56;9.30;;;5.38;;
75417;SDS011;63997;52.112;5.420;2022-10-31T01:41:28;10.95;;;5.68;;
75417;SDS011;63997;52.112;5.420;2022-10-31T01:43:58;6.32;;;4.90;;
75417;SDS011;63997;52.112;5.420;2022-10-31T01:46:33;8.97;;;5.00;;
75417;SDS011;63997;52.112;5.420;2022-10-31T01:49:04;8.98;;;4.60;;
75417;SDS011;63997;52.112;5.420;2022-10-31T01:51:36;10.75;;;4.88;;
75417;SDS011;63997;52.112;5.420;2022-10-31T01:54:08;8.10;;;4.60;;
75417;SDS011;63997;52.112;5.420;2022-10-31T01:56:39;8.65;;;4.70;;
75417;SDS011;63997;52.112;5.420;2022-10-31T01:59:10;10.37;;;4.13;;
75417;SDS011;63997;52.112;5.420;2022-10-31T02:01:40;6.53;;;4.05;;
75417;SDS011;63997;52.112;5.420;2022-10-31T02:04:06;19.58;;;4.13;;
75417;SDS011;63997;52.112;5.420;2022-10-31T02:06:41;92.60;;;4.38;;
75417;SDS011;63997;52.112;5.420;2022-10-31T02:09:13;39.25;;;3.70;;
75417;SDS011;63997;52.112;5.420;2022-10-31T02:11:40;44.10;;;3.73;;
75417;SDS011;63997;52.112;5.420;2022-10-31T02:14:07;7.32;;;2.78;;
75417;SDS011;63997;52.112;5.420;2022-10-31T02:16:33;6.97;;;3.17;;
75417;SDS011;63997;52.112;5.420;2022-10-31T02:18:59;107.97;;;7.10;;
75417;SDS011;63997;52.112;5.420;2022-10-31T02:26:58;3.90;;;2.00;;
75417;SDS011;63997;52.112;5.420;2022-10-31T02:43:40;2.95;;;2.30;;
75417;SDS011;63997;52.112;5.420;2022-10-31T02:48:54;2.60;;;1.42;;
75417;SDS011;63997;52.112;5.420;2022-10-31T02:51:26;5.83;;;0.97;;
75417;SDS011;63997;52.112;5.420;2022-10-31T02:53:53;17.38;;;1.70;;
75417;SDS011;63997;52.112;5.420;2022-10-31T02:56:19;5.25;;;1.10;;
75417;SDS011;63997;52.112;5.420;2022-10-31T02:58:49;3.90;;;1.50;;
75417;SDS011;63997;52.112;5.420;2022-10-31T03:04:03;1.13;;;0.67;;
75417;SDS011;63997;52.112;5.420;2022-10-31T03:06:33;9.90;;;1.80;;
75417;SDS011;63997;52.112;5.420;2022-10-31T03:12:21;13.88;;;1.30;;
75417;SDS011;63997;52.112;5.420;2022-10-31T03:14:32;7.00;;;1.20;;
75417;SDS011;63997;52.112;5.420;2022-10-31T03:17:07;12.10;;;1.77;;
75417;SDS011;63997;52.112;5.420;2022-10-31T03:19:42;16.45;;;2.10;;
75417;SDS011;63997;52.112;5.420;2022-10-31T03:24:47;3.10;;;0.70;;
75417;SDS011;63997;52.112;5.420;2022-10-31T03:27:18;4.05;;;1.15;;
75417;SDS011;63997;52.112;5.420;2022-10-31T03:29:49;5.03;;;1.00;;
75417;SDS011;63997;52.112;5.420;2022-10-31T03:32:34;5.35;;;1.15;;
75417;SDS011;63997;52.112;5.420;2022-10-31T03:35:07;4.05;;;0.90;;
75417;SDS011;63997;52.112;5.420;2022-10-31T03:37:37;1.48;;;0.90;;
75417;SDS011;63997;52.112;5.420;2022-10-31T03:40:06;5.28;;;1.33;;
75417;SDS011;63997;52.112;5.420;2022-10-31T03:42:37;2.53;;;0.90;;
75417;SDS011;63997;52.112;5.420;2022-10-31T03:45:13;1.08;;;0.60;;
75417;SDS011;63997;52.112;5.420;2022-10-31T03:47:45;1.08;;;0.50;;
75417;SDS011;63997;52.112;5.420;2022-10-31T03:50:12;2.20;;;1.00;;
75417;SDS011;63997;52.112;5.420;2022-10-31T03:52:45;3.67;;;1.27;;
75417;SDS011;63997;52.112;5.420;2022-10-31T03:55:31;4.07;;;0.80;;
75417;SDS011;63997;52.112;5.420;2022-10-31T03:58:06;1.73;;;0.90;;
75417;SDS011;63997;52.112;5.420;2022-10-31T04:00:38;1.27;;;0.90;;
75417;SDS011;63997;52.112;5.420;2022-10-31T04:03:18;3.45;;;1.40;;
75417;SDS011;63997;52.112;5.420;2022-10-31T04:05:49;2.60;;;0.70;;
75417;SDS011;63997;52.112;5.420;2022-10-31T04:08:20;3.53;;;1.10;;
75417;SDS011;63997;52.112;5.420;2022-10-31T04:10:49;1.42;;;0.93;;
75417;SDS011;63997;52.112;5.420;2022-10-31T04:13:26;6.78;;;0.95;;
75417;SDS011;63997;52.112;5.420;2022-10-31T04:15:55;21.15;;;1.40;;
75417;SDS011;63997;52.112;5.420;2022-10-31T04:18:23;11.30;;;1.15;;
75417;SDS011;63997;52.112;5.420;2022-10-31T04:20:58;25.87;;;2.47;;
75417;SDS011;63997;52.112;5.420;2022-10-31T04:23:27;14.40;;;1.25;;
75417;SDS011;63997;52.112;5.420;2022-10-31T04:25:54;7.53;;;1.10;;
75417;SDS011;63997;52.112;5.420;2022-10-31T04:28:20;23.70;;;2.08;;
75417;SDS011;63997;52.112;5.420;2022-10-31T04:30:47;25.08;;;1.88;;
75417;SDS011;63997;52.112;5.420;2022-10-31T04:33:13;1.00;;;0.60;;
75417;SDS011;63997;52.112;5.420;2022-10-31T04:35:40;1.67;;;0.75;;
75417;SDS011;63997;52.112;5.420;2022-10-31T04:38:06;1.77;;;0.93;;
75417;SDS011;63997;52.112;5.420;2022-10-31T04:40:32;4.28;;;0.80;;
75417;SDS011;63997;52.112;5.420;2022-10-31T04:42:59;4.05;;;1.00;;
75417;SDS011;63997;52.112;5.420;2022-10-31T04:45:26;3.90;;;1.20;;
75417;SDS011;63997;52.112;5.420;2022-10-31T04:47:52;12.23;;;1.40;;
75417;SDS011;63997;52.112;5.420;2022-10-31T04:50:18;3.90;;;1.33;;
75417;SDS011;63997;52.112;5.420;2022-10-31T04:52:45;1.90;;;1.35;;
75417;SDS011;63997;52.112;5.420;2022-10-31T04:55:12;1.65;;;1.10;;
75417;SDS011;63997;52.112;5.420;2022-10-31T04:57:40;3.20;;;1.10;;
75417;SDS011;63997;52.112;5.420;2022-10-31T05:00:10;2.97;;;1.30;;
75417;SDS011;63997;52.112;5.420;2022-10-31T05:02:44;2.40;;;1.30;;
75417;SDS011;63997;52.112;5.420;2022-10-31T05:05:12;1.67;;;0.95;;
75417;SDS011;63997;52.112;5.420;2022-10-31T05:07:41;1.00;;;0.82;;
75417;SDS011;63997;52.112;5.420;2022-10-31T05:10:12;2.20;;;0.83;;
75417;SDS011;63997;52.112;5.420;2022-10-31T05:12:49;3.40;;;1.00;;
75417;SDS011;63997;52.112;5.420;2022-10-31T05:15:18;3.45;;;1.60;;
75417;SDS011;63997;52.112;5.420;2022-10-31T05:17:46;2.95;;;0.90;;
75417;SDS011;63997;52.112;5.420;2022-10-31T05:20:13;2.70;;;1.33;;
75417;SDS011;63997;52.112;5.420;2022-10-31T05:22:51;5.80;;;1.47;;
75417;SDS011;63997;52.112;5.420;2022-10-31T05:25:20;3.28;;;0.77;;
75417;SDS011;63997;52.112;5.420;2022-10-31T05:27:49;2.97;;;0.60;;
75417;SDS011;63997;52.112;5.420;2022-10-31T05:30:17;8.98;;;1.45;;
75417;SDS011;63997;52.112;5.420;2022-10-31T05:32:46;14.93;;;2.20;;
75417;SDS011;63997;52.112;5.420;2022-10-31T05:35:35;13.40;;;2.07;;
75417;SDS011;63997;52.112;5.420;2022-10-31T05:38:00;4.18;;;1.85;;
75417;SDS011;63997;52.112;5.420;2022-10-31T05:40:27;5.75;;;1.90;;
75417;SDS011;63997;52.112;5.420;2022-10-31T05:42:54;9.60;;;2.38;;
75417;SDS011;63997;52.112;5.420;2022-10-31T05:45:23;6.82;;;2.28;;
75417;SDS011;63997;52.112;5.420;2022-10-31T05:47:59;17.13;;;1.33;;
75417;SDS011;63997;52.112;5.420;2022-10-31T05:50:28;12.05;;;1.90;;
75417;SDS011;63997;52.112;5.420;2022-10-31T05:53:00;8.23;;;2.78;;
75417;SDS011;63997;52.112;5.420;2022-10-31T05:55:29;23.83;;;2.88;;
75417;SDS011;63997;52.112;5.420;2022-10-31T05:57:56;6.85;;;1.70;;
75417;SDS011;63997;52.112;5.420;2022-10-31T06:00:23;5.70;;;2.20;;
75417;SDS011;63997;52.112;5.420;2022-10-31T06:02:57;19.27;;;3.63;;
75417;SDS011;63997;52.112;5.420;2022-10-31T06:05:24;9.70;;;2.20;;
75417;SDS011;63997;52.112;5.420;2022-10-31T06:07:51;8.63;;;3.10;;
75417;SDS011;63997;52.112;5.420;2022-10-31T06:10:17;11.10;;;2.80;;
75417;SDS011;63997;52.112;5.420;2022-10-31T06:12:45;16.00;;;2.60;;
75417;SDS011;63997;52.112;5.420;2022-10-31T06:15:11;8.55;;;2.50;;
75417;SDS011;63997;52.112;5.420;2022-10-31T06:17:38;13.50;;;2.85;;
75417;SDS011;63997;52.112;5.420;2022-10-31T06:20:04;5.03;;;2.50;;
75417;SDS011;63997;52.112;5.420;2022-10-31T06:22:31;17.63;;;3.03;;
75417;SDS011;63997;52.112;5.420;2022-10-31T06:24:58;21.97;;;3.30;;
75417;SDS011;63997;52.112;5.420;2022-10-31T06:27:25;7.78;;;3.03;;
75417;SDS011;63997;52.112;5.420;2022-10-31T06:29:51;15.75;;;5.05;;
75417;SDS011;63997;52.112;5.420;2022-10-31T06:32:18;14.93;;;2.78;;
75417;SDS011;63997;52.112;5.420;2022-10-31T06:34:45;15.40;;;3.58;;
75417;SDS011;63997;52.112;5.420;2022-10-31T06:37:14;19.70;;;3.10;;
75417;SDS011;63997;52.112;5.420;2022-10-31T06:39:41;5.88;;;2.38;;
75417;SDS011;63997;52.112;5.420;2022-10-31T06:42:07;27.45;;;4.45;;
75417;SDS011;63997;52.112;5.420;2022-10-31T06:44:33;17.17;;;4.57;;
75417;SDS011;63997;52.112;5.420;2022-10-31T06:47:00;35.13;;;4.63;;
75417;SDS011;63997;52.112;5.420;2022-10-31T06:49:26;6.70;;;3.27;;
75417;SDS011;63997;52.112;5.420;2022-10-31T06:51:52;11.30;;;3.33;;
75417;SDS011;63997;52.112;5.420;2022-10-31T06:54:19;18.15;;;4.43;;
75417;SDS011;63997;52.112;5.420;2022-10-31T06:56:45;14.60;;;3.88;;
75417;SDS011;63997;52.112;5.420;2022-10-31T06:59:13;14.32;;;4.50;;
75417;SDS011;63997;52.112;5.420;2022-10-31T07:01:40;12.60;;;3.90;;
75417;SDS011;63997;52.112;5.420;2022-10-31T07:04:10;13.32;;;4.25;;
75417;SDS011;63997;52.112;5.420;2022-10-31T07:06:37;18.65;;;4.57;;
75417;SDS011;63997;52.112;5.420;2022-10-31T07:09:04;18.38;;;4.40;;
75417;SDS011;63997;52.112;5.420;2022-10-31T07:11:30;23.63;;;4.75;;
75417;SDS011;63997;52.112;5.420;2022-10-31T07:13:57;10.37;;;5.10;;
75417;SDS011;63997;52.112;5.420;2022-10-31T07:16:23;16.15;;;5.13;;
75417;SDS011;63997;52.112;5.420;2022-10-31T07:18:50;20.60;;;6.90;;
75417;SDS011;63997;52.112;5.420;2022-10-31T07:21:16;22.40;;;4.50;;
75417;SDS011;63997;52.112;5.420;2022-10-31T07:23:43;26.75;;;5.00;;
75417;SDS011;63997;52.112;5.420;2022-10-31T07:26:09;33.77;;;5.67;;
75417;SDS011;63997;52.112;5.420;2022-10-31T07:28:36;6.13;;;4.95;;
75417;SDS011;63997;52.112;5.420;2022-10-31T07:31:03;5.70;;;4.68;;
75417;SDS011;63997;52.112;5.420;2022-10-31T07:33:30;8.23;;;4.25;;
75417;SDS011;63997;52.112;5.420;2022-10-31T07:35:58;8.50;;;4.93;;
75417;SDS011;63997;52.112;5.420;2022-10-31T07:38:26;14.07;;;4.30;;
75417;SDS011;63997;52.112;5.420;2022-10-31T07:40:54;14.23;;;4.82;;
75417;SDS011;63997;52.112;5.420;2022-10-31T07:43:21;16.00;;;5.40;;
75417;SDS011;63997;52.112;5.420;2022-10-31T07:45:50;18.52;;;5.63;;
75417;SDS011;63997;52.112;5.420;2022-10-31T07:48:18;15.90;;;6.90;;
75417;SDS011;63997;52.112;5.420;2022-10-31T07:50:47;9.87;;;6.07;;
75417;SDS011;63997;52.112;5.420;2022-10-31T07:53:14;8.25;;;4.63;;
75417;SDS011;63997;52.112;5.420;2022-10-31T07:55:42;12.15;;;5.38;;
75417;SDS011;63997;52.112;5.420;2022-10-31T07:58:12;8.20;;;4.43;;
75417;SDS011;63997;52.112;5.420;2022-10-31T08:00:41;8.25;;;4.88;;
75417;SDS011;63997;52.112;5.420;2022-10-31T08:03:11;21.37;;;5.20;;
75417;SDS011;63997;52.112;5.420;2022-10-31T08:05:40;11.10;;;4.13;;
75417;SDS011;63997;52.112;5.420;2022-10-31T08:08:08;10.73;;;4.80;;
75417;SDS011;63997;52.112;5.420;2022-10-31T08:10:36;30.70;;;6.32;;
75417;SDS011;63997;52.112;5.420;2022-10-31T08:13:05;14.18;;;5.18;;
75417;SDS011;63997;52.112;5.420;2022-10-31T08:15:40;12.87;;;5.27;;
75417;SDS011;63997;52.112;5.420;2022-10-31T08:18:12;15.05;;;6.13;;
75417;SDS011;63997;52.112;5.420;2022-10-31T08:20:40;18.48;;;6.15;;
75417;SDS011;63997;52.112;5.420;2022-10-31T08:23:09;8.50;;;5.45;;
75417;SDS011;63997;52.112;5.420;2022-10-31T08:25:37;8.70;;;5.53;;
75417;SDS011;63997;52.112;5.420;2022-10-31T08:28:05;7.37;;;5.80;;
75417;SDS011;63997;52.112;5.420;2022-10-31T08:30:34;10.15;;;7.40;;
75417;SDS011;63997;52.112;5.420;2022-10-31T08:33:10;14.88;;;7.80;;
75417;SDS011;63997;52.112;5.420;2022-10-31T08:35:37;11.80;;;7.60;;
75417;SDS011;63997;52.112;5.420;2022-10-31T08:38:05;9.73;;;6.80;;
75417;SDS011;63997;52.112;5.420;2022-10-31T08:40:34;9.37;;;7.27;;
75417;SDS011;63997;52.112;5.420;2022-10-31T08:43:05;9.93;;;8.07;;
75417;SDS011;63997;52.112;5.420;2022-10-31T08:45:35;11.45;;;7.32;;
75417;SDS011;63997;52.112;5.420;2022-10-31T08:48:03;9.48;;;7.38;;
75417;SDS011;63997;52.112;5.420;2022-10-31T08:50:33;14.00;;;7.70;;
75417;SDS011;63997;52.112;5.420;2022-10-31T08:55:38;10.40;;;7.15;;
75417;SDS011;63997;52.112;5.420;2022-10-31T08:58:07;11.85;;;8.05;;
75417;SDS011;63997;52.112;5.420;2022-10-31T09:00:39;11.30;;;7.95;;
75417;SDS011;63997;52.112;5.420;2022-10-31T09:03:10;11.02;;;8.05;;
75417;SDS011;63997;52.112;5.420;2022-10-31T09:05:38;14.97;;;7.70;;
75417;SDS011;63997;52.112;5.420;2022-10-31T09:08:06;16.15;;;11.23;;
75417;SDS011;63997;52.112;5.420;2022-10-31T09:10:41;14.75;;;9.15;;
75417;SDS011;63997;52.112;5.420;2022-10-31T09:13:10;12.18;;;8.82;;
75417;SDS011;63997;52.112;5.420;2022-10-31T09:15:39;11.85;;;8.15;;
75417;SDS011;63997;52.112;5.420;2022-10-31T09:18:08;11.53;;;9.30;;
75417;SDS011;63997;52.112;5.420;2022-10-31T09:20:35;11.93;;;9.20;;
75417;SDS011;63997;52.112;5.420;2022-10-31T09:23:04;14.90;;;9.57;;
75417;SDS011;63997;52.112;5.420;2022-10-31T09:25:33;17.15;;;10.20;;
75417;SDS011;63997;52.112;5.420;2022-10-31T09:28:02;16.55;;;10.52;;
75417;SDS011;63997;52.112;5.420;2022-10-31T09:30:30;17.93;;;11.47;;
75417;SDS011;63997;52.112;5.420;2022-10-31T09:33:00;15.07;;;11.55;;
75417;SDS011;63997;52.112;5.420;2022-10-31T09:35:28;15.55;;;10.30;;
75417;SDS011;63997;52.112;5.420;2022-10-31T09:37:55;17.98;;;11.55;;
75417;SDS011;63997;52.112;5.420;2022-10-31T09:40:25;17.08;;;10.48;;
75417;SDS011;63997;52.112;5.420;2022-10-31T09:43:09;18.53;;;11.93;;
75417;SDS011;63997;52.112;5.420;2022-10-31T09:46:04;22.77;;;13.27;;
75417;SDS011;63997;52.112;5.420;2022-10-31T09:51:43;26.00;;;13.25;;
75417;SDS011;63997;52.112;5.420;2022-10-31T09:54:19;21.40;;;13.18;;
75417;SDS011;63997;52.112;5.420;2022-10-31T09:56:52;21.33;;;13.47;;
75417;SDS011;63997;52.112;5.420;2022-10-31T09:59:29;20.58;;;13.88;;
75417;SDS011;63997;52.112;5.420;2022-10-31T10:02:22;21.75;;;14.32;;
75417;SDS011;63997;52.112;5.420;2022-10-31T10:05:13;26.15;;;12.48;;
75417;SDS011;63997;52.112;5.420;2022-10-31T10:07:59;23.25;;;14.13;;
75417;SDS011;63997;52.112;5.420;2022-10-31T10:10:41;22.40;;;13.03;;
75417;SDS011;63997;52.112;5.420;2022-10-31T10:18:56;19.25;;;12.93;;
75417;SDS011;63997;52.112;5.420;2022-10-31T10:21:32;19.42;;;11.38;;
75417;SDS011;63997;52.112;5.420;2022-10-31T10:24:12;19.20;;;10.70;;
75417;SDS011;63997;52.112;5.420;2022-10-31T10:26:42;20.38;;;10.95;;
75417;SDS011;63997;52.112;5.420;2022-10-31T10:29:29;19.33;;;11.10;;
75417;SDS011;63997;52.112;5.420;2022-10-31T10:31:57;21.58;;;11.68;;
75417;SDS011;63997;52.112;5.420;2022-10-31T10:34:32;19.83;;;11.65;;
75417;SDS011;63997;52.112;5.420;2022-10-31T10:37:04;18.53;;;10.13;;
75417;SDS011;63997;52.112;5.420;2022-10-31T10:39:39;16.70;;;10.40;;
75417;SDS011;63997;52.112;5.420;2022-10-31T10:42:13;17.08;;;9.90;;
75417;SDS011;63997;52.112;5.420;2022-10-31T10:45:06;17.45;;;10.40;;
75417;SDS011;63997;52.112;5.420;2022-10-31T10:48:02;19.38;;;9.45;;
75417;SDS011;63997;52.112;5.420;2022-10-31T10:50:36;14.33;;;8.90;;
75417;SDS011;63997;52.112;5.420;2022-10-31T10:53:20;19.70;;;8.80;;
75417;SDS011;63997;52.112;5.420;2022-10-31T10:58:42;22.48;;;9.40;;
75417;SDS011;63997;52.112;5.420;2022-10-31T11:01:12;23.45;;;10.80;;
75417;SDS011;63997;52.112;5.420;2022-10-31T11:03:41;19.90;;;10.17;;
75417;SDS011;63997;52.112;5.420;2022-10-31T11:06:17;20.67;;;10.85;;
75417;SDS011;63997;52.112;5.420;2022-10-31T11:08:48;26.75;;;11.52;;
75417;SDS011;63997;52.112;5.420;2022-10-31T11:14:04;15.38;;;9.07;;
75417;SDS011;63997;52.112;5.420;2022-10-31T11:16:39;13.60;;;8.37;;
75417;SDS011;63997;52.112;5.420;2022-10-31T11:21:37;17.17;;;9.80;;
75417;SDS011;63997;52.112;5.420;2022-10-31T11:26:37;17.52;;;9.00;;
75417;SDS011;63997;52.112;5.420;2022-10-31T11:29:05;18.07;;;9.80;;
75417;SDS011;63997;52.112;5.420;2022-10-31T11:31:39;21.48;;;10.43;;
75417;SDS011;63997;52.112;5.420;2022-10-31T11:34:12;22.42;;;10.05;;
75417;SDS011;63997;52.112;5.420;2022-10-31T11:36:42;18.52;;;10.45;;
75417;SDS011;63997;52.112;5.420;2022-10-31T11:39:17;22.10;;;11.13;;
75417;SDS011;63997;52.112;5.420;2022-10-31T11:41:46;24.50;;;12.13;;
75417;SDS011;63997;52.112;5.420;2022-10-31T11:46:49;25.00;;;12.15;;
75417;SDS011;63997;52.112;5.420;2022-10-31T11:49:25;23.20;;;13.80;;
75417;SDS011;63997;52.112;5.420;2022-10-31T11:51:58;25.25;;;12.43;;
75417;SDS011;63997;52.112;5.420;2022-10-31T11:54:28;23.00;;;12.67;;
75417;SDS011;63997;52.112;5.420;2022-10-31T11:56:57;28.65;;;12.85;;
75417;SDS011;63997;52.112;5.420;2022-10-31T11:59:30;25.75;;;14.32;;
75417;SDS011;63997;52.112;5.420;2022-10-31T12:01:58;27.83;;;12.85;;
75417;SDS011;63997;52.112;5.420;2022-10-31T12:04:49;32.50;;;13.82;;
75417;SDS011;63997;52.112;5.420;2022-10-31T12:07:16;37.47;;;13.53;;
75417;SDS011;63997;52.112;5.420;2022-10-31T12:09:43;26.95;;;12.82;;
75417;SDS011;63997;52.112;5.420;2022-10-31T12:17:48;25.90;;;13.00;;
75417;SDS011;63997;52.112;5.420;2022-10-31T12:23:24;23.90;;;14.57;;
75417;SDS011;63997;52.112;5.420;2022-10-31T12:26:07;30.17;;;14.55;;
75417;SDS011;63997;52.112;5.420;2022-10-31T12:31:26;28.35;;;13.75;;
75417;SDS011;63997;52.112;5.420;2022-10-31T12:36:34;30.70;;;14.10;;
75417;SDS011;63997;52.112;5.420;2022-10-31T12:47:55;30.70;;;14.80;;
75417;SDS011;63997;52.112;5.420;2022-10-31T12:51:15;32.72;;;14.27;;
75417;SDS011;63997;52.112;5.420;2022-10-31T12:54:11;29.33;;;14.82;;
75417;SDS011;63997;52.112;5.420;2022-10-31T12:57:06;35.42;;;15.88;;
75417;SDS011;63997;52.112;5.420;2022-10-31T12:59:48;33.38;;;14.13;;
75417;SDS011;63997;52.112;5.420;2022-10-31T13:08:09;30.00;;;14.23;;
75417;SDS011;63997;52.112;5.420;2022-10-31T13:13:33;31.50;;;14.63;;
75417;SDS011;63997;52.112;5.420;2022-10-31T13:16:17;27.60;;;14.10;;
75417;SDS011;63997;52.112;5.420;2022-10-31T13:18:47;32.55;;;15.05;;
75417;SDS011;63997;52.112;5.420;2022-10-31T13:21:21;29.60;;;14.38;;
75417;SDS011;63997;52.112;5.420;2022-10-31T13:23:52;26.45;;;14.23;;
75417;SDS011;63997;52.112;5.420;2022-10-31T13:31:35;35.13;;;16.33;;
75417;SDS011;63997;52.112;5.420;2022-10-31T13:34:09;35.30;;;17.85;;
75417;SDS011;63997;52.112;5.420;2022-10-31T13:36:56;36.90;;;16.27;;
75417;SDS011;63997;52.112;5.420;2022-10-31T13:39:45;32.22;;;15.32;;
75417;SDS011;63997;52.112;5.420;2022-10-31T13:42:20;37.63;;;16.50;;
75417;SDS011;63997;52.112;5.420;2022-10-31T13:44:49;37.55;;;17.23;;
75417;SDS011;63997;52.112;5.420;2022-10-31T13:47:23;42.25;;;15.55;;
75417;SDS011;63997;52.112;5.420;2022-10-31T13:50:02;29.70;;;15.30;;
75417;SDS011;63997;52.112;5.420;2022-10-31T13:52:44;33.95;;;16.63;;
75417;SDS011;63997;52.112;5.420;2022-10-31T14:03:40;33.78;;;14.93;;
75417;SDS011;63997;52.112;5.420;2022-10-31T14:06:34;29.98;;;13.90;;
75417;SDS011;63997;52.112;5.420;2022-10-31T14:09:03;31.77;;;16.17;;
75417;SDS011;63997;52.112;5.420;2022-10-31T14:11:30;30.15;;;14.68;;
75417;SDS011;63997;52.112;5.420;2022-10-31T14:14:02;31.13;;;14.20;;
75417;SDS011;63997;52.112;5.420;2022-10-31T14:16:29;35.88;;;16.40;;
75417;SDS011;63997;52.112;5.420;2022-10-31T14:19:02;29.88;;;14.98;;
75417;SDS011;63997;52.112;5.420;2022-10-31T14:21:37;25.90;;;13.90;;
75417;SDS011;63997;52.112;5.420;2022-10-31T14:26:55;29.52;;;14.07;;
75417;SDS011;63997;52.112;5.420;2022-10-31T14:29:29;30.02;;;15.32;;
75417;SDS011;63997;52.112;5.420;2022-10-31T14:34:55;35.60;;;15.30;;
75417;SDS011;63997;52.112;5.420;2022-10-31T14:40:24;25.00;;;13.63;;
75417;SDS011;63997;52.112;5.420;2022-10-31T14:48:24;28.80;;;14.13;;
75417;SDS011;63997;52.112;5.420;2022-10-31T14:51:07;31.50;;;14.95;;
75417;SDS011;63997;52.112;5.420;2022-10-31T14:56:23;32.30;;;14.30;;
75417;SDS011;63997;52.112;5.420;2022-10-31T14:58:52;30.13;;;14.93;;
75417;SDS011;63997;52.112;5.420;2022-10-31T15:01:39;29.90;;;13.73;;
75417;SDS011;63997;52.112;5.420;2022-10-31T15:04:23;35.63;;;14.98;;
75417;SDS011;63997;52.112;5.420;2022-10-31T15:06:54;34.58;;;14.93;;
75417;SDS011;63997;52.112;5.420;2022-10-31T15:09:27;25.80;;;14.20;;
75417;SDS011;63997;52.112;5.420;2022-10-31T15:11:57;28.52;;;14.48;;
75417;SDS011;63997;52.112;5.420;2022-10-31T15:14:26;28.77;;;14.77;;
75417;SDS011;63997;52.112;5.420;2022-10-31T15:16:57;32.22;;;13.35;;
75417;SDS011;63997;52.112;5.420;2022-10-31T15:19:27;33.70;;;14.43;;
75417;SDS011;63997;52.112;5.420;2022-10-31T15:21:56;37.75;;;15.52;;
75417;SDS011;63997;52.112;5.420;2022-10-31T15:24:30;35.60;;;14.63;;
75417;SDS011;63997;52.112;5.420;2022-10-31T15:27:01;25.87;;;13.97;;
75417;SDS011;63997;52.112;5.420;2022-10-31T15:29:30;31.83;;;13.85;;
75417;SDS011;63997;52.112;5.420;2022-10-31T15:31:58;33.00;;;15.40;;
75417;SDS011;63997;52.112;5.420;2022-10-31T15:37:04;33.42;;;13.77;;
75417;SDS011;63997;52.112;5.420;2022-10-31T15:39:35;35.23;;;15.47;;
75417;SDS011;63997;52.112;5.420;2022-10-31T15:42:01;28.02;;;14.15;;
75417;SDS011;63997;52.112;5.420;2022-10-31T15:44:32;32.25;;;14.73;;
75417;SDS011;63997;52.112;5.420;2022-10-31T15:47:03;29.77;;;14.35;;
75417;SDS011;63997;52.112;5.420;2022-10-31T15:49:42;29.52;;;14.00;;
75417;SDS011;63997;52.112;5.420;2022-10-31T15:55:02;29.42;;;14.25;;
75417;SDS011;63997;52.112;5.420;2022-10-31T15:57:31;26.30;;;14.32;;
75417;SDS011;63997;52.112;5.420;2022-10-31T15:59:58;29.85;;;13.82;;
75417;SDS011;63997;52.112;5.420;2022-10-31T16:02:26;32.58;;;14.32;;
75417;SDS011;63997;52.112;5.420;2022-10-31T16:07:27;26.98;;;13.10;;
75417;SDS011;63997;52.112;5.420;2022-10-31T16:09:56;28.00;;;13.40;;
75417;SDS011;63997;52.112;5.420;2022-10-31T16:12:28;32.15;;;14.05;;
75417;SDS011;63997;52.112;5.420;2022-10-31T16:14:58;29.60;;;13.68;;
75417;SDS011;63997;52.112;5.420;2022-10-31T16:17:24;35.67;;;14.60;;
75417;SDS011;63997;52.112;5.420;2022-10-31T16:19:55;32.15;;;13.30;;
75417;SDS011;63997;52.112;5.420;2022-10-31T16:22:26;31.40;;;13.85;;
75417;SDS011;63997;52.112;5.420;2022-10-31T16:25:00;37.95;;;13.65;;
75417;SDS011;63997;52.112;5.420;2022-10-31T16:27:31;32.65;;;14.15;;
75417;SDS011;63997;52.112;5.420;2022-10-31T16:30:00;30.90;;;13.53;;
75417;SDS011;63997;52.112;5.420;2022-10-31T16:35:26;28.73;;;13.80;;
75417;SDS011;63997;52.112;5.420;2022-10-31T16:37:57;27.77;;;12.77;;
75417;SDS011;63997;52.112;5.420;2022-10-31T16:40:24;33.50;;;13.18;;
75417;SDS011;63997;52.112;5.420;2022-10-31T16:42:50;25.43;;;12.67;;
75417;SDS011;63997;52.112;5.420;2022-10-31T16:45:22;29.02;;;13.80;;
75417;SDS011;63997;52.112;5.420;2022-10-31T16:47:51;26.52;;;13.40;;
75417;SDS011;63997;52.112;5.420;2022-10-31T16:50:22;30.90;;;13.23;;
75417;SDS011;63997;52.112;5.420;2022-10-31T16:52:51;32.80;;;13.27;;
75417;SDS011;63997;52.112;5.420;2022-10-31T16:55:44;34.47;;;12.93;;
75417;SDS011;63997;52.112;5.420;2022-10-31T16:58:34;30.27;;;12.40;;
75417;SDS011;63997;52.112;5.420;2022-10-31T17:01:04;28.90;;;13.15;;
75417;SDS011;63997;52.112;5.420;2022-10-31T17:03:31;33.75;;;12.55;;
75417;SDS011;63997;52.112;5.420;2022-10-31T17:05:58;30.08;;;12.57;;